Nearby METAR Reports

KLNK - Lincoln, Nebraska, USA
Distance from station: WNW 8mi, 13km
Updated: Wed, 20-Oct-2021 2:54pm CDT
Overcast
Overcast
 Wind from W
Wind: W 23 mph , 37 km/h, Gust: 31 mph , 50 km/h
Temperature: 52°F , 11°C
Dew Point: 39°F , 4°C
Humidity: 62%
Barometer: 30.03 inHg , 1016.9 hPa
Clouds: Overcast
Visibility: 10 miles , 16 km
Cloud details: Overcast 2800 ft
2021/10/20 19:54 KLNK 201954Z AUTO 28020G27KT 10SM OVC028 11/04 A3003 RMK AO2 PK WND 28030/1856 SLP169 T01110044
KAHQ - Wahoo, Nebraska, USA
Distance from station: N 31mi, 49km
Updated: Wed, 20-Oct-2021 3:15pm CDT
Overcast
Overcast
 Wind from W
Wind: W 22 mph , 35 km/h, Gust: 28 mph , 44 km/h
Temperature: 52°F , 11°C
Dew Point: 43°F , 6°C
Humidity: 72%
Barometer: 29.99 inHg , 1015.6 hPa
Clouds: Overcast
Visibility: 10 miles , 16 km
Cloud details: Overcast 2300 ft
2021/10/20 20:15 KAHQ 202015Z AUTO 28019G24KT 10SM OVC023 11/06 A2999 RMK AO2 T01050057
 
KBIE - Beatrice Municip, Nebraska, USA
Distance from station: S 36mi, 57km
Updated: Wed, 20-Oct-2021 3:15pm CDT
Overcast
Overcast
 Wind from WNW
Wind: WNW 22 mph , 35 km/h, Gust: 26 mph , 43 km/h
Temperature: 57°F , 14°C
Dew Point: 41°F , 5°C
Humidity: 55%
Barometer: 30.03 inHg , 1016.9 hPa
Clouds: Overcast
Visibility: 10 miles , 16 km
Cloud details: Overcast 3400 ft
2021/10/20 20:15 KBIE 202015Z AUTO 29019G23KT 10SM OVC034 14/05 A3003 RMK AO2 T01360045
KMLE - Omaha/Millard, Nebraska, USA
Distance from station: NE 39mi, 63km
Updated: Wed, 20-Oct-2021 3:15pm CDT
Overcast
Overcast
 Wind from W
Wind: W 17 mph , 28 km/h, Gust: 25 mph , 41 km/h
Temperature: 54°F , 12°C
Dew Point: 43°F , 6°C
Humidity: 67%
Barometer: 29.98 inHg , 1015.2 hPa
Clouds: Overcast
Visibility: 10 miles , 16 km
Cloud details: Overcast 2400 ft
2021/10/20 20:15 KMLE 202015Z AUTO 28015G22KT 10SM OVC024 12/06 A2998 RMK AO2 T01170055
 
KPMV - Plattsmouth Muni, Nebraska, USA
Distance from station: ENE 39mi, 63km
Updated: Wed, 20-Oct-2021 3:15pm CDT
Overcast
Overcast
 Wind from W
Wind: W 18 mph , 30 km/h, Gust: 24 mph , 39 km/h
Temperature: 54°F , 12°C
Dew Point: 43°F , 6°C
Humidity: 67%
Barometer: 29.99 inHg , 1015.6 hPa
Clouds: Overcast
Visibility: 10 miles , 16 km
Cloud details: Overcast 2600 ft
2021/10/20 20:15 KPMV 202015Z AUTO 28016G21KT 10SM OVC026 12/06 A2999 RMK AO2 T01200055
KAFK - Nebraska City, Nebraska, USA
Distance from station: ESE 43mi, 69km
Updated: Wed, 20-Oct-2021 3:15pm CDT
Overcast
Overcast
 Wind from W
Wind: W 24 mph , 39 km/h, Gust: 32 mph , 52 km/h
Temperature: 55°F , 13°C
Dew Point: 41°F , 5°C
Humidity: 59%
Barometer: 30.00 inHg , 1015.9 hPa
Clouds: Overcast
Visibility: 10 miles , 16 km
Cloud details: Mostly Cloudy 3100 ft
Overcast 4000 ft
2021/10/20 20:15 KAFK 202015Z AUTO 27021G28KT 10SM BKN031 OVC040 13/05 A3000 RMK AO2 T01290048
 
KOFF - Offutt Afb/Belle, Nebraska, USA
Distance from station: ENE 44mi, 70km
Updated: Wed, 20-Oct-2021 2:56pm CDT
Overcast
Overcast
 Wind from W
Wind: W 17 mph , 28 km/h, Gust: 21 mph , 33 km/h
Temperature: 54°F , 12°C
Dew Point: 43°F , 6°C
Humidity: 67%
Barometer: 29.99 inHg , 1015.6 hPa
Clouds: Overcast
Visibility: 10 miles , 16 km
Cloud details: Overcast 2200 ft
2021/10/20 19:56 KOFF 201956Z 28015G18KT 10SM OVC022 12/06 A2999 RMK AO2A SLP160 T01190055 PWINO PNO FZRANO TSNO VISNO RWY12 CHINO RWY12 $
KFET - Fremont Muni Arp, Nebraska, USA
Distance from station: N 46mi, 74km
Updated: Wed, 20-Oct-2021 3:15pm CDT
Overcast
Overcast
 Wind from W
Wind: W 20 mph , 31 km/h, Gust: 26 mph , 43 km/h
Temperature: 52°F , 11°C
Dew Point: 43°F , 6°C
Humidity: 72%
Barometer: 29.99 inHg , 1015.6 hPa
Clouds: Overcast
Visibility: 10 miles , 16 km
Cloud details: Overcast 2100 ft
2021/10/20 20:15 KFET 202015Z AUTO 27017G23KT 10SM OVC021 11/06 A2999 RMK AO2 T01070058
 
KBTA - Blair Muni, Nebraska, USA
Distance from station: NNE 51mi, 82km
Updated: Wed, 20-Oct-2021 3:15pm CDT
Overcast
Overcast
 Wind from WSW
Wind: WSW 14 mph , 22 km/h, Gust: 25 mph , 41 km/h
Temperature: 50°F , 10°C
Wind Chill: 45°F , 7°C
Dew Point: 43°F , 6°C
Humidity: 76%
Barometer: 29.96 inHg , 1014.6 hPa
Clouds: Overcast
Visibility: 10 miles , 16 km
Cloud details: Overcast 1700 ft
2021/10/20 20:15 KBTA 202015Z AUTO 25012G22KT 230V290 10SM OVC017 10/06 A2996 RMK AO2 T00960060
KJYR - York, Nebraska, USA
Distance from station: W 52mi, 84km
Updated: Wed, 20-Oct-2021 3:15pm CDT
Overcast
Overcast
 Wind from WNW
Wind: WNW 21 mph , 33 km/h
Temperature: 50°F , 10°C
Wind Chill: 43°F , 6°C
Dew Point: 39°F , 4°C
Humidity: 67%
Barometer: 30.03 inHg , 1016.9 hPa
Clouds: Overcast
Visibility: 10 miles , 16 km
Cloud details: Overcast 2700 ft
2021/10/20 20:15 KJYR 202015Z AUTO 29018KT 10SM OVC027 10/04 A3003 RMK AO2
 
KOMA - Omaha/Eppley, Nebraska, USA
Distance from station: NE 53mi, 85km
Updated: Wed, 20-Oct-2021 2:52pm CDT
Overcast
Overcast
 Wind from W
Wind: W 22 mph , 35 km/h, Gust: 33 mph , 54 km/h
Temperature: 54°F , 12°C
Dew Point: 45°F , 7°C
Humidity: 72%
Barometer: 29.96 inHg , 1014.6 hPa
Clouds: Overcast
Visibility: 10 miles , 16 km
Cloud details: Overcast 2200 ft
2021/10/20 19:52 KOMA 201952Z 26019G29KT 10SM OVC022 12/07 A2996 RMK AO2 PK WND 24029/1952 SLP143 T01220067
KOLU - Columbus Muni, Nebraska, USA
Distance from station: NW 58mi, 93km
Updated: Wed, 20-Oct-2021 2:56pm CDT
Overcast
Overcast
 Wind from WNW
Wind: WNW 17 mph , 28 km/h, Gust: 26 mph , 43 km/h
Temperature: 48°F , 9°C
Wind Chill: 42°F , 6°C
Dew Point: 39°F , 4°C
Humidity: 71%
Barometer: 30.01 inHg , 1016.3 hPa
Clouds: Overcast
Visibility: 10 miles , 16 km
Cloud details: Overcast 2100 ft
2021/10/20 19:56 KOLU 201956Z AUTO 29015G23KT 10SM OVC021 09/04 A3001 RMK AO2 SLP166 T00940044